KBVY/BVY METAR and TAF weather

Enter ICAO airport designator
Station Type Date Time Source
KBVY METAR 2018/10/21 04:53 UTC NOAA

KBVY 210453Z AUTO 00000KT 10SM BKN095 06/04 A2957 RMK AO2 SLP008 T00610044 401780056


Station Type Date Time Source
KBVY Decoded METAR 2018/10/21 04:53 UTC NOAA

BEVERLY MUNICIPAL AIRPORT, MA, United States (KBVY) 42-35N 070-55W 28M
Oct 21, 2018 - 12:53 AM EDT / 2018.10.21 0453 UTC
Wind: Calm:0
Visibility: 10 mile(s):0
Sky conditions: mostly cloudy
Temperature: 43.0 F (6.1 C)
Dew Point: 39.9 F (4.4 C)
Relative Humidity: 88%
Pressure (altimeter): 29.57 in. Hg (1001 hPa)
ob: KBVY 210453Z AUTO 00000KT 10SM BKN095 06/04 A2957 RMK AO2 SLP008 T00610044 401780056
cycle: 5

Station Type Date Time Source
KBVY TAF UTC NOAA

Error!


Example: see airport list